Date,TemperatureHighF,TemperatureAvgF,TemperatureLowF,DewpointHighF,DewpointAvgF,DewpointLowF,HumidityHigh,HumidityAvg,HumidityLow,PressureMaxIn,PressureMinIn,WindSpeedMaxMPH,WindSpeedAvgMPH,GustSpeedMaxMPH,PrecipitationSumIn
2014-1-1,23,21,17,23,20,15,98,94,90,0.00,40.00,2,1,5,0.00
2014-1-2,30,23,18,25,21,16,97,91,82,0.00,40.00,1,0,4,0.00
2014-1-3,28,23,13,26,21,7,97,92,81,0.00,40.00,4,2,12,0.00
2014-1-4,19,10,-5,12,5,-100,89,81,69,0.00,40.00,4,1,8,0.00
2014-1-5,17,2,-16,6,-6,-23,82,71,46,0.00,40.00,4,1,12,0.00
2014-1-6,24,2,-18,7,-6,-25,81,67,45,0.00,40.00,4,1,7,0.01
2014-1-7,28,14,3,18,9,-1,91,79,51,0.00,40.00,3,1,9,0.01
2014-1-8,30,22,15,25,19,13,97,91,81,0.00,40.00,3,1,9,0.00
2014-1-9,28,22,16,28,20,12,99,95,91,0.00,40.00,5,2,13,0.00
2014-1-10,26,22,14,26,21,12,98,95,90,0.00,40.00,5,3,13,0.00
2014-1-11,33,30,25,33,17,-100,100,90,98,0.00,40.00,6,2,17,0.00
2014-1-12,28,24,21,28,23,20,100,96,93,0.00,40.00,6,4,18,0.00
2014-1-13,29,26,22,29,26,21,100,99,96,0.00,40.00,5,4,15,0.00
2014-1-14,30,25,22,28,25,21,100,98,94,0.00,40.00,3,2,8,0.00
2014-1-15,32,25,14,29,24,12,100,95,87,0.00,40.00,3,1,8,0.06
2014-1-16,33,16,6,29,14,3,96,89,82,0.00,40.00,2,1,4,0.21
2014-1-17,36,14,-2,26,9,-7,94,83,68,0.00,40.00,3,1,9,0.20
2014-1-18,40,12,0,24,6,-100,96,81,53,0.00,40.00,2,1,8,0.28
2014-1-19,37,13,1,21,8,-3,94,81,48,0.00,40.00,3,1,9,0.28
2014-1-20,46,16,1,22,10,-3,94,81,33,0.00,40.00,2,1,6,0.00
2014-1-21,41,10,-3,17,3,-8,89,75,35,0.00,40.00,3,1,8,0.00
2014-1-22,32,12,0,23,8,-4,96,82,54,0.00,40.00,2,2,6,0.01
2014-1-23,35,14,2,16,8,-3,91,78,35,0.00,40.00,3,2,8,0.01
2014-1-24,40,11,-1,13,4,-6,87,74,30,0.00,40.00,3,1,8,0.00
2014-1-25,36,10,-3,10,1,-100,86,72,34,0.00,40.00,5,1,10,0.00
2014-1-26,29,12,-7,15,3,-13,84,70,44,0.00,40.00,3,1,8,0.00
2014-1-27,31,18,-9,11,1,-18,72,50,27,0.00,40.00,5,2,11,0.00
2014-1-28,27,1,-19,11,-10,-27,84,60,27,0.00,40.00,4,2,10,0.00
2014-1-29,26,21,15,24,19,11,98,92,85,0.00,40.00,2,1,10,0.00
2014-1-30,26,25,23,25,24,22,99,97,92,0.00,40.00,4,2,10,0.00
2014-1-31,26,21,17,24,18,14,98,90,66,0.00,40.00,4,2,11,0.07
2014-2-1,27,14,-5,15,8,-100,93,80,51,0.00,40.00,4,2,10,0.11
2014-2-2,24,13,3,16,9,-1,87,81,68,0.00,40.00,4,1,9,0.03
2014-2-3,24,17,9,19,14,6,93,87,77,0.00,40.00,5,1,13,0.00
2014-2-4,14,2,-13,12,-4,-20,90,75,57,0.00,40.00,5,2,13,0.00
2014-2-5,12,-6,-13,-1,-14,-20,77,71,54,0.00,40.00,3,2,7,0.00
2014-2-6,17,2,-21,3,-7,-100,83,70,50,0.00,40.00,3,2,10,0.01
2014-2-7,18,15,7,15,12,3,93,89,83,0.00,40.00,3,1,10,0.01
2014-2-8,27,22,16,27,22,14,100,96,92,0.00,40.00,4,2,10,0.00
2014-2-9,34,29,26,33,29,26,100,99,94,0.00,40.00,4,3,11,0.11
2014-2-10,36,26,22,27,25,21,100,94,70,0.00,40.00,4,2,9,0.24
2014-2-11,27,25,22,27,25,21,100,99,97,0.00,40.00,3,2,10,0.01
2014-2-12,32,29,25,32,29,25,100,100,100,0.00,40.00,5,3,17,0.00
2014-2-13,35,32,25,35,32,21,100,99,83,0.00,40.00,6,4,19,0.51
2014-2-14,33,25,13,32,24,12,100,97,90,0.00,40.00,3,1,6,0.06
2014-2-15,35,32,31,35,31,-100,100,98,98,0.00,40.00,3,2,6,0.14
2014-2-16,36,30,15,35,30,14,100,99,93,0.00,40.00,6,3,22,0.13
2014-2-17,37,26,8,26,19,6,94,76,60,0.00,40.00,5,2,12,0.59
2014-2-18,38,30,16,26,20,12,98,67,37,0.00,40.00,7,3,22,0.05
2014-2-19,35,27,8,28,12,-2,91,55,23,0.00,40.00,7,4,22,0.01
2014-2-20,26,20,-2,21,12,-7,92,72,46,0.00,40.00,7,4,20,0.01
2014-2-21,37,25,16,23,15,3,100,71,32,0.00,40.00,7,4,16,0.04
2014-2-22,27,17,11,17,9,-100,92,74,47,0.00,40.00,4,1,11,0.02
2014-2-23,33,25,15,27,22,13,100,88,68,0.00,40.00,5,2,15,0.06
2014-2-24,40,34,29,30,27,24,92,77,68,0.00,40.00,5,3,12,0.01
2014-2-25,41,30,9,33,19,0,100,66,26,0.00,40.00,6,3,13,0.06
2014-2-26,46,17,-1,23,7,-100,93,72,38,0.00,40.00,4,2,9,0.06
2014-2-27,47,36,21,34,30,19,100,84,47,0.00,40.00,5,3,14,0.02
2014-2-28,38,33,31,35,32,31,100,98,88,0.00,40.00,5,3,16,0.16
2014-3-1,31,29,31,31,22,-100,100,93,100,0.00,40.00,1,0,3,0.18
2014-3-2,36,28,14,34,27,13,100,97,89,0.00,40.00,2,0,6,0.13
2014-3-3,38,34,32,36,34,32,100,99,89,0.00,40.00,5,3,17,0.26
2014-3-4,43,33,22,35,31,22,100,93,59,0.00,40.00,3,2,9,0.70
2014-3-5,43,34,19,37,29,19,100,82,60,0.00,40.00,4,2,14,0.18
2014-3-6,39,35,32,38,34,28,100,93,66,0.00,40.00,6,3,17,0.85
2014-3-7,41,33,23,33,29,21,100,87,53,0.00,40.00,4,2,11,0.12
2014-3-8,46,27,12,27,19,-100,100,80,38,0.00,40.00,4,1,11,0.02
2014-3-9,45,32,20,36,27,20,100,87,43,0.00,40.00,5,2,15,0.09
2014-3-10,38,33,30,37,33,29,100,99,87,0.00,40.00,7,3,18,0.44
2014-3-11,43,30,18,31,24,14,100,83,41,0.00,40.00,4,1,11,0.40
2014-3-12,44,21,6,19,12,3,96,74,33,0.00,40.00,4,2,10,0.01
2014-3-13,47,25,8,25,17,5,95,76,40,0.00,40.00,5,2,13,0.01
2014-3-14,46,27,12,33,21,10,100,82,39,0.00,40.00,5,2,15,0.00
2014-3-15,44,31,19,31,23,10,100,76,29,0.00,40.00,4,2,10,0.32
2014-3-16,51,33,16,24,18,-100,97,64,31,0.00,40.00,5,2,13,0.32
2014-3-17,41,34,27,31,22,17,96,66,39,0.00,40.00,7,5,20,0.00
2014-3-18,38,23,14,20,16,12,93,77,46,0.00,40.00,5,2,14,0.21
2014-3-19,42,19,1,15,7,-3,91,63,29,0.00,40.00,5,2,15,0.02
2014-3-20,47,37,27,18,10,-100,57,36,24,0.00,40.00,8,5,30,0.02
2014-3-21,40,24,7,8,-1,-100,66,39,16,0.00,40.00,4,2,12,0.00
2014-3-22,40,26,15,8,4,-100,65,44,25,0.00,40.00,5,2,16,0.00
2014-3-23,42,24,6,14,7,1,80,54,27,0.00,40.00,6,3,14,0.00
2014-3-24,45,38,24,18,15,12,73,42,26,0.00,40.00,5,3,12,0.00
2014-3-25,56,33,15,21,15,12,88,56,20,0.00,40.00,5,2,14,0.00
2014-3-26,45,35,28,34,30,21,100,84,45,0.00,40.00,5,1,15,0.10
2014-3-27,34,29,25,31,28,25,100,96,72,0.00,40.00,6,2,18,0.24
2014-3-28,43,31,25,31,27,25,100,85,51,0.00,40.00,5,3,12,0.32
2014-3-29,37,33,30,36,32,29,100,97,85,0.00,40.00,5,1,15,0.33
2014-3-30,36,32,28,35,32,27,100,98,90,0.00,40.00,3,1,8,0.15
2014-3-31,41,32,20,30,26,18,100,79,58,0.00,40.00,4,2,8,0.63
2014-4-1,45,28,11,29,20,9,100,78,38,0.00,40.00,6,3,13,0.35
2014-4-2,39,29,24,26,25,24,100,87,59,0.00,40.00,4,2,10,0.35
2014-4-3,44,29,16,25,21,14,100,77,35,0.00,40.00,4,1,10,0.02
2014-4-4,43,27,13,31,21,11,100,80,46,0.00,40.00,5,2,11,0.02
2014-4-5,45,32,29,33,28,-100,100,89,42,0.00,40.00,4,1,11,0.10
2014-4-6,45,33,23,36,26,16,100,79,34,0.00,40.00,6,2,15,0.14
2014-4-7,50,33,14,28,22,12,93,66,43,0.00,40.00,4,2,8,0.02
2014-4-8,60,38,20,33,26,20,100,69,30,0.00,40.00,5,2,13,0.00
2014-4-9,61,40,24,41,28,23,99,71,30,0.00,40.00,7,3,18,0.18
2014-4-10,53,42,24,32,26,19,100,61,28,0.00,40.00,5,2,17,0.01
2014-4-11,60,43,22,27,24,20,92,54,27,0.00,40.00,6,3,17,0.01
2014-4-12,57,40,24,32,25,-100,97,64,26,0.00,40.00,5,3,16,0.00
2014-4-13,42,30,22,31,16,4,100,61,29,0.00,40.00,8,4,24,0.06
2014-4-14,45,21,6,13,5,1,80,58,19,0.00,40.00,4,2,10,0.06
2014-4-15,48,34,22,28,17,13,76,53,24,0.00,40.00,11,2,22,0.00
2014-4-16,45,31,14,20,16,12,92,59,29,0.00,40.00,4,2,13,0.00
2014-4-17,56,37,16,25,19,14,90,57,27,0.00,40.00,5,2,15,0.00